Nearby METAR Reports

 

KSJC - San Jose, California, USA
Distance from station: NØ 14km
Opdateret: 18/07/2018 22:53
Mest skyet
Mest skyet
 Vind retning VNV
Vind: VNV 17 km/h
Temperatur: 28°C
Heat Index: 28°C
Dugpunkt: 16°C
Fugtighed: 48%
Barometer: 1014.2 hPa
Clouds: Mest skyet
Visibility: 16 km
Cloud details: Few Clouds 1829 m
Delvist skyet 3048 m
Mest skyet 4267 m
2018/07/18 20:53 KSJC 182053Z 30009KT 10SM FEW060 SCT100 BKN140 28/16 A2995 RMK AO2 SLP141 T02830161 58012
KNUQ - Moffett Nas/Mtn, California, USA
Distance from station: N 14km
Opdateret: 18/07/2018 22:56
Klart
Klart
 Vind retning N
Vind: N 20 km/h
Temperatur: 23°C
Dugpunkt: 16°C
Fugtighed: 65%
Barometer: 1014.6 hPa
Clouds: Klart
Visibility: 16 km
2018/07/18 20:56 KNUQ 182056Z 35011KT 10SM CLR 23/16 A2996 RMK AO2 SLP149 T02330161 58012
 
KPAO - Palo Alto, California, USA
Distance from station: NNV 23km
Opdateret: 18/07/2018 22:47
Delvist skyet
Delvist skyet
 Vind retning NNV
Vind: NNV 20 km/h
Temperatur: 24°C
Dugpunkt: 16°C
Fugtighed: 61%
Barometer: 1015.2 hPa
Clouds: Delvist skyet
Visibility: 16 km
Cloud details: Delvist skyet 6096 m
2018/07/18 20:47 KPAO 182047Z 33011KT 10SM SCT200 24/16 A2998
KRHV - San Jose/Reid, California, USA
Distance from station: ØNØ 19km
Opdateret: 18/07/2018 22:50
Delvist skyet
Delvist skyet
 Vind retning NV
Vind: NV 19 km/h
Temperatur: 31°C
Dugpunkt: 15°C
Fugtighed: 38%
Barometer: 1013.2 hPa
Clouds: Delvist skyet
Visibility: 16 km
Cloud details: Delvist skyet 5486 m
2018/07/18 20:50 KRHV 182050Z 32010KT 10SM SCT180 31/15 A2992
 
KOAK - Oakland, California, USA
Distance from station: NNV 50km
Opdateret: 18/07/2018 22:53
Mest skyet
Mest skyet
 Vind retning VNV
Vind: VNV 30 km/h
Temperatur: 21°C
Dugpunkt: 14°C
Fugtighed: 64%
Barometer: 1015.2 hPa
Clouds: Mest skyet
Visibility: 16 km
Cloud details: Few Clouds 305 m
Mest skyet 6096 m
2018/07/18 20:53 KOAK 182053Z 30016KT 10SM FEW010 BKN200 21/14 A2998 RMK AO2 SLP151 T02060139 58010
KSQL - San Carlos Airpo, California, USA
Distance from station: NV 34km
Opdateret: 18/07/2018 22:49
Mest skyet
Mest skyet
 Vind retning N
Vind: N 17 km/h
Temperatur: 22°C
Dugpunkt: 15°C
Fugtighed: 65%
Barometer: 1014.9 hPa
Clouds: Mest skyet
Visibility: 16 km
Cloud details: Mest skyet 6096 m
2018/07/18 20:49 KSQL 182049Z 35009KT 10SM BKN200 22/15 A2997
 
KSFO - San Francisco, California, USA
Distance from station: NV 49km
Opdateret: 18/07/2018 22:56
Mest skyet
Mest skyet
 Vind retning VNV
Vind: VNV 30 km/h
Temperatur: 22°C
Dugpunkt: 13°C
Fugtighed: 57%
Barometer: 1014.9 hPa
Clouds: Mest skyet
Visibility: 16 km
Cloud details: Few Clouds 305 m
Mest skyet 6096 m
2018/07/18 20:56 KSFO 182056Z 30016KT 10SM FEW010 BKN200 22/13 A2997 RMK AO2 SLP147 T02170133 58009
KE16 - San Martin, California, USA
Distance from station: ØSØ 43km
Opdateret: 18/07/2018 22:15
NOT Current
Klart
Klart
 Vind retning S
Vind: S 11 km/h
Temperatur: 28°C
Dugpunkt: 12°C
Fugtighed: 37%
Barometer: 1015.2 hPa
Clouds: Klart
Visibility: 14 km
2018/07/18 20:15 KE16 182015Z AUTO 17006KT 9SM CLR 28/12 A2998 RMK AO2
 
KWVI - Watsonville, California, USA
Distance from station: SSØ 44km
Opdateret: 18/07/2018 22:53
Klart
Klart
 Vind retning SV
Vind: SV 17 km/h
Temperatur: 19°C
Dugpunkt: 13°C
Fugtighed: 68%
Barometer: 1016.6 hPa
Clouds: Klart
Visibility: 16 km
2018/07/18 20:53 KWVI 182053Z AUTO 22009KT 10SM CLR 19/13 A3002 RMK AO2 SLPNO T01890128 58003
KHAF - Half Moon Bay, California, USA
Distance from station: VNV 50km
Opdateret: 18/07/2018 23:40
Overskyet
Overskyet
 Vind retning S
Vind: S 11 km/h
Temperatur: 16°C
Dugpunkt: 13°C
Fugtighed: 83%
Barometer: 1016.6 hPa
Clouds: Overskyet
Visibility: 13 km
Cloud details: Overskyet 183 m
2018/07/18 21:40 KHAF 182140Z AUTO 17006KT 8SM OVC006 16/13 A3002 RMK AO2
 
KHWD - Hayward, California, USA
Distance from station: N 44km
Opdateret: 18/07/2018 22:54
Klart
Klart
 Vind retning V
Vind: V 26 km/h
Temperatur: 24°C
Dugpunkt: 15°C
Fugtighed: 57%
Barometer: 1014.9 hPa
Clouds: Klart
Visibility: 16 km
2018/07/18 20:54 KHWD 182054Z 28014KT 10SM CLR 24/15 A2997 RMK AO2 SLP156 T02390150 58010
KLVK - Livermore, California, USA
Distance from station: NNØ 51km
Opdateret: 18/07/2018 22:53
Klart
Klart
 Vind retning V
Vind: V 11 km/h
Temperatur: 34°C
Dugpunkt: 15°C
Fugtighed: 32%
Barometer: 1013.2 hPa
Clouds: Klart
Visibility: 16 km
2018/07/18 20:53 KLVK 182053Z 28006KT 10SM CLR 34/15 A2992 RMK AO2 SLP127 T03390150 58017